createdAt,value
2022-10-28T00:00:52.926Z,17.55
2022-10-28T00:03:20.802Z,17.61
2022-10-28T00:05:48.905Z,17.49
2022-10-28T00:08:16.620Z,17.46
2022-10-28T00:10:44.378Z,17.49
2022-10-28T00:13:12.070Z,17.53
2022-10-28T00:15:41.176Z,17.43
2022-10-28T00:18:08.877Z,17.43
2022-10-28T00:20:36.516Z,17.45
2022-10-28T00:23:04.302Z,17.58
2022-10-28T00:29:15.848Z,17.34
2022-10-28T00:31:45.781Z,17.34
2022-10-28T00:34:15.097Z,17.25
2022-10-28T00:36:44.301Z,17.25
2022-10-28T00:39:13.934Z,17.31
2022-10-28T00:41:43.555Z,17.33
2022-10-28T00:44:54.513Z,17.28
2022-10-28T00:47:37.656Z,17.35
2022-10-28T00:50:16.053Z,17.74
2022-10-28T00:52:48.075Z,17.71
2022-10-28T00:55:17.225Z,17.77
2022-10-28T00:57:47.158Z,17.74
2022-10-28T01:00:16.220Z,17.90
2022-10-28T01:02:49.340Z,17.61
2022-10-28T01:05:21.804Z,17.68
2022-10-28T01:07:52.542Z,17.52
2022-10-28T01:10:24.425Z,17.65
2022-10-28T01:13:06.283Z,17.53
2022-10-28T01:15:42.794Z,17.71
2022-10-28T01:18:20.673Z,17.71
2022-10-28T01:21:24.658Z,17.87
2022-10-28T01:24:05.424Z,17.89
2022-10-28T01:26:54.644Z,17.84
2022-10-28T01:29:42.257Z,17.76
2022-10-28T01:32:14.594Z,17.85
2022-10-28T01:34:51.849Z,17.70
2022-10-28T01:37:26.309Z,17.56
2022-10-28T01:40:02.857Z,17.69
2022-10-28T01:42:35.789Z,17.55
2022-10-28T01:45:14.782Z,17.49
2022-10-28T01:47:50.712Z,17.24
2022-10-28T01:50:25.138Z,17.31
2022-10-28T01:52:56.511Z,17.30
2022-10-28T01:55:28.410Z,17.31
2022-10-28T01:58:00.003Z,17.23
2022-10-28T02:00:28.488Z,17.25
2022-10-28T02:02:57.709Z,17.16
2022-10-28T02:05:50.150Z,17.20
2022-10-28T02:08:33.713Z,17.09
2022-10-28T02:11:20.892Z,17.25
2022-10-28T02:14:06.701Z,17.36
2022-10-28T02:16:44.741Z,17.19
2022-10-28T02:19:19.845Z,17.22
2022-10-28T02:21:55.548Z,17.18
2022-10-28T02:24:31.652Z,17.25
2022-10-28T02:27:07.926Z,17.16
2022-10-28T02:29:42.223Z,17.16
2022-10-28T02:32:14.879Z,17.22
2022-10-28T02:34:48.545Z,17.34
2022-10-28T02:37:22.201Z,17.37
2022-10-28T02:39:54.523Z,17.44
2022-10-28T02:42:26.257Z,17.45
2022-10-28T02:44:59.741Z,17.54
2022-10-28T02:47:29.913Z,17.53
2022-10-28T02:50:02.450Z,17.49
2022-10-28T02:52:32.382Z,17.60
2022-10-28T02:55:03.238Z,17.56
2022-10-28T02:57:33.682Z,17.55
2022-10-28T03:00:03.309Z,17.42
2022-10-28T03:02:31.053Z,17.50
2022-10-28T03:05:00.137Z,17.45
2022-10-28T03:07:27.962Z,17.48
2022-10-28T03:09:55.807Z,17.53
2022-10-28T03:12:23.640Z,17.67
2022-10-28T03:14:51.365Z,17.67
2022-10-28T03:17:19.156Z,17.78
2022-10-28T03:19:46.856Z,17.95
2022-10-28T03:22:15.968Z,17.94
2022-10-28T03:24:43.722Z,17.99
2022-10-28T03:27:11.458Z,18.06
2022-10-28T03:29:43.338Z,18.15
2022-10-28T03:32:13.653Z,18.29
2022-10-28T03:34:41.521Z,18.40
2022-10-28T03:37:09.206Z,18.53
2022-10-28T03:39:38.345Z,18.65
2022-10-28T03:42:06.253Z,18.70
2022-10-28T03:44:33.901Z,18.79
2022-10-28T03:47:01.642Z,18.84
2022-10-28T03:49:29.333Z,18.90
2022-10-28T03:51:57.036Z,18.92
2022-10-28T03:54:24.741Z,18.90
2022-10-28T03:56:53.847Z,18.91
2022-10-28T03:59:21.578Z,18.91
2022-10-28T04:01:49.342Z,18.95
2022-10-28T04:04:17.311Z,19.11
2022-10-28T04:06:45.107Z,19.18
2022-10-28T04:09:12.850Z,19.11
2022-10-28T04:11:40.533Z,19.12
2022-10-28T04:14:09.648Z,19.09
2022-10-28T04:16:37.330Z,19.02
2022-10-28T04:19:05.149Z,18.99
2022-10-28T04:21:32.789Z,18.94
2022-10-28T04:24:00.561Z,18.89
2022-10-28T04:26:28.259Z,18.90
2022-10-28T04:28:55.932Z,18.90
2022-10-28T04:31:25.026Z,18.92
2022-10-28T04:33:52.876Z,18.76
2022-10-28T04:36:20.653Z,18.72
2022-10-28T04:38:48.294Z,18.55
2022-10-28T04:41:16.598Z,18.56
2022-10-28T04:43:44.317Z,18.54
2022-10-28T04:46:11.986Z,18.53
2022-10-28T04:48:41.085Z,18.44
2022-10-28T04:51:08.837Z,18.44
2022-10-28T04:53:36.621Z,18.45
2022-10-28T04:56:04.427Z,18.51
2022-10-28T04:58:32.098Z,18.49
2022-10-28T05:00:59.894Z,18.51
2022-10-28T05:03:27.677Z,18.40
2022-10-28T05:05:56.701Z,18.12
2022-10-28T05:08:24.548Z,18.04
2022-10-28T05:10:52.243Z,18.09
2022-10-28T05:13:20.129Z,18.02
2022-10-28T05:15:49.270Z,18.01
2022-10-28T05:18:17.168Z,17.96
2022-10-28T05:20:45.383Z,17.95
2022-10-28T05:23:15.113Z,17.93
2022-10-28T05:25:43.989Z,17.91
2022-10-28T05:28:11.675Z,17.98
2022-10-28T05:30:39.390Z,17.99
2022-10-28T05:33:07.202Z,18.01
2022-10-28T05:35:34.886Z,18.03
2022-10-28T05:38:02.605Z,18.07
2022-10-28T05:40:32.527Z,18.06
2022-10-28T05:43:00.266Z,18.12
2022-10-28T05:48:01.123Z,18.03
2022-10-28T05:50:28.840Z,18.06
2022-10-28T05:52:58.172Z,18.17
2022-10-28T05:55:28.359Z,18.36
2022-10-28T05:57:58.244Z,18.45
2022-10-28T06:00:27.923Z,18.49
2022-10-28T06:03:03.516Z,18.52
2022-10-28T06:05:31.269Z,18.40
2022-10-28T06:07:59.037Z,18.36
2022-10-28T06:10:26.770Z,18.72
2022-10-28T06:12:56.089Z,18.84
2022-10-28T06:15:23.889Z,18.90
2022-10-28T06:17:51.748Z,19.08
2022-10-28T06:20:20.163Z,19.19
2022-10-28T06:22:49.230Z,19.09
2022-10-28T06:25:17.874Z,19.10
2022-10-28T06:27:45.657Z,19.15
2022-10-28T06:30:15.010Z,19.22
2022-10-28T06:32:42.754Z,19.24
2022-10-28T06:35:10.470Z,18.84
2022-10-28T06:37:38.218Z,19.00
2022-10-28T06:40:07.705Z,19.19
2022-10-28T06:42:35.395Z,19.22
2022-10-28T06:45:04.053Z,19.21
2022-10-28T06:47:38.998Z,19.17
2022-10-28T06:50:09.927Z,19.14
2022-10-28T06:52:37.703Z,19.06
2022-10-28T06:55:06.079Z,19.14
2022-10-28T06:57:33.829Z,19.16
2022-10-28T07:00:01.576Z,19.15
2022-10-28T07:02:29.413Z,19.10
2022-10-28T07:04:58.513Z,18.96
2022-10-28T07:07:26.251Z,19.04
2022-10-28T07:09:53.975Z,19.19
2022-10-28T07:12:22.010Z,19.22
2022-10-28T07:14:50.139Z,19.11
2022-10-28T07:17:17.807Z,19.07
2022-10-28T07:19:45.553Z,19.22
2022-10-28T07:22:14.604Z,19.28
2022-10-28T07:24:42.343Z,19.33
2022-10-28T07:27:10.694Z,19.01
2022-10-28T07:29:38.486Z,19.16
2022-10-28T07:32:06.485Z,19.07
2022-10-28T07:34:34.221Z,19.26
2022-10-28T07:37:02.030Z,19.29
2022-10-28T07:39:31.165Z,19.32
2022-10-28T07:42:00.425Z,19.32
2022-10-28T07:44:28.406Z,19.43
2022-10-28T07:46:58.166Z,19.53
2022-10-28T07:49:26.562Z,19.58
2022-10-28T07:51:54.276Z,19.48
2022-10-28T07:54:22.061Z,19.74
2022-10-28T07:56:51.112Z,19.65
2022-10-28T07:59:25.689Z,19.80
2022-10-28T08:01:55.186Z,19.94
2022-10-28T08:04:23.004Z,19.87
2022-10-28T08:06:50.675Z,20.09
2022-10-28T08:09:18.415Z,20.21
2022-10-28T08:11:46.068Z,20.11
2022-10-28T08:14:15.687Z,20.18
2022-10-28T08:16:43.392Z,20.17
2022-10-28T08:19:11.980Z,20.18
2022-10-28T08:21:39.656Z,20.34
2022-10-28T08:24:08.144Z,20.42
2022-10-28T08:26:35.927Z,20.47
2022-10-28T08:29:03.585Z,20.32
2022-10-28T08:31:34.400Z,20.23
2022-10-28T08:34:02.148Z,20.31
2022-10-28T08:36:29.804Z,20.39
2022-10-28T08:38:59.190Z,20.41
2022-10-28T08:41:35.979Z,20.67
2022-10-28T08:44:38.972Z,20.64
2022-10-28T08:47:17.144Z,20.61
2022-10-28T08:49:49.301Z,20.09
2022-10-28T08:52:26.661Z,20.04
2022-10-28T08:54:59.051Z,20.56
2022-10-28T08:57:36.174Z,19.75
2022-10-28T09:00:07.632Z,20.26
2022-10-28T09:02:50.094Z,20.42
2022-10-28T09:05:23.379Z,20.37
2022-10-28T09:07:51.720Z,20.67
2022-10-28T09:10:38.340Z,20.90
2022-10-28T09:13:18.217Z,20.88
2022-10-28T09:15:51.654Z,20.63
2022-10-28T09:18:24.245Z,20.70
2022-10-28T09:20:54.495Z,20.89
2022-10-28T09:23:30.960Z,20.71
2022-10-28T09:26:07.859Z,21.02
2022-10-28T09:28:52.927Z,21.16
2022-10-28T09:31:28.843Z,21.27
2022-10-28T09:34:08.988Z,21.31
2022-10-28T09:36:41.066Z,21.52
2022-10-28T09:39:17.977Z,21.75
2022-10-28T09:41:48.985Z,21.75
2022-10-28T09:44:21.501Z,21.75
2022-10-28T09:46:52.476Z,21.49
2022-10-28T09:49:26.987Z,21.27
2022-10-28T09:52:00.876Z,21.11
2022-10-28T09:54:35.768Z,20.80
2022-10-28T09:57:05.355Z,21.20
2022-10-28T09:59:33.323Z,21.19
2022-10-28T10:02:01.375Z,21.13
2022-10-28T10:04:32.209Z,21.29
2022-10-28T10:07:04.747Z,21.30
2022-10-28T10:09:34.252Z,21.33
2022-10-28T10:12:05.920Z,21.11
2022-10-28T10:14:40.004Z,21.21
2022-10-28T10:17:13.581Z,20.79
2022-10-28T10:20:03.922Z,20.55
2022-10-28T10:22:33.496Z,20.78
2022-10-28T10:25:01.333Z,21.18
2022-10-28T10:27:30.182Z,21.22
2022-10-28T10:29:58.901Z,21.34
2022-10-28T10:32:29.462Z,21.28
2022-10-28T10:35:06.714Z,21.16
2022-10-28T10:37:36.581Z,21.37
2022-10-28T10:40:17.536Z,21.39
2022-10-28T10:42:57.395Z,21.17
2022-10-28T10:45:33.208Z,21.26
2022-10-28T10:48:21.765Z,21.45
2022-10-28T10:50:51.507Z,21.44
2022-10-28T10:53:22.176Z,21.50
2022-10-28T10:55:52.200Z,21.39
2022-10-28T10:58:22.688Z,21.62
2022-10-28T11:00:52.465Z,21.68
2022-10-28T11:03:25.548Z,21.93
2022-10-28T11:06:18.264Z,21.99
2022-10-28T11:08:45.009Z,21.74
2022-10-28T11:11:15.567Z,21.99
2022-10-28T11:13:46.184Z,21.89
2022-10-28T11:16:23.213Z,21.80
2022-10-28T11:18:52.519Z,22.02
2022-10-28T11:21:47.795Z,22.12
2022-10-28T11:24:37.852Z,22.07
2022-10-28T11:27:17.095Z,21.89
2022-10-28T11:29:46.468Z,21.71
2022-10-28T11:32:54.643Z,22.09
2022-10-28T11:35:49.525Z,22.10
2022-10-28T11:38:32.584Z,21.89
2022-10-28T11:41:13.367Z,21.61
2022-10-28T11:43:54.769Z,22.10
2022-10-28T11:46:34.945Z,22.29
2022-10-28T11:49:30.441Z,22.16
2022-10-28T11:52:05.636Z,22.23
2022-10-28T11:54:48.017Z,22.58
2022-10-28T11:57:18.628Z,22.52
2022-10-28T12:00:08.053Z,22.11
2022-10-28T12:02:56.038Z,21.82
2022-10-28T12:05:31.417Z,22.01
2022-10-28T12:08:10.158Z,22.14
2022-10-28T12:10:59.799Z,22.17
2022-10-28T12:13:37.924Z,21.77
2022-10-28T12:16:14.285Z,22.03
2022-10-28T12:18:51.828Z,22.23
2022-10-28T12:21:29.271Z,22.20
2022-10-28T12:23:59.917Z,22.48
2022-10-28T12:26:36.058Z,22.34
2022-10-28T12:29:09.897Z,22.34
2022-10-28T12:31:44.633Z,22.54
2022-10-28T12:34:15.832Z,22.93
2022-10-28T12:36:49.239Z,22.62
2022-10-28T12:39:22.408Z,22.24
2022-10-28T12:42:00.728Z,22.24
2022-10-28T12:44:29.449Z,21.79
2022-10-28T12:47:10.061Z,22.29
2022-10-28T12:49:47.713Z,22.16
2022-10-28T12:52:26.735Z,22.24
2022-10-28T12:54:59.870Z,22.37
2022-10-28T12:57:32.751Z,22.58
2022-10-28T13:00:04.052Z,22.48
2022-10-28T13:02:36.482Z,22.55
2022-10-28T13:05:05.561Z,22.63
2022-10-28T13:08:09.214Z,22.62
2022-10-28T13:10:43.812Z,22.41
2022-10-28T13:13:43.202Z,22.43
2022-10-28T13:16:39.402Z,22.15
2022-10-28T13:19:30.146Z,22.40
2022-10-28T13:22:18.107Z,22.42
2022-10-28T13:24:56.152Z,22.27
2022-10-28T13:27:24.449Z,22.27
2022-10-28T13:29:56.014Z,22.23
2022-10-28T13:32:34.151Z,22.36
2022-10-28T13:35:13.855Z,22.39
2022-10-28T13:37:46.065Z,22.08
2022-10-28T13:40:23.603Z,21.81
2022-10-28T13:42:51.732Z,22.07
2022-10-28T13:45:59.098Z,22.23
2022-10-28T13:48:51.916Z,22.36
2022-10-28T13:51:45.162Z,22.39
2022-10-28T13:54:26.960Z,22.22
2022-10-28T13:56:56.949Z,22.56
2022-10-28T13:59:33.291Z,22.90
2022-10-28T14:04:59.880Z,22.42
2022-10-28T14:07:31.259Z,22.58
2022-10-28T14:10:17.625Z,21.79
2022-10-28T14:12:51.235Z,21.97
2022-10-28T14:15:24.287Z,22.10
2022-10-28T14:18:04.895Z,22.17
2022-10-28T14:20:59.082Z,22.12
2022-10-28T14:24:06.725Z,22.19
2022-10-28T14:27:29.976Z,22.17
2022-10-28T14:30:23.759Z,22.18
2022-10-28T14:33:19.284Z,22.27
2022-10-28T14:35:55.315Z,22.26
2022-10-28T14:38:50.785Z,22.23
2022-10-28T14:41:31.223Z,22.37
2022-10-28T14:44:10.507Z,22.42
2022-10-28T14:46:57.263Z,22.28
2022-10-28T14:49:27.933Z,22.24
2022-10-28T14:51:58.028Z,22.23
2022-10-28T14:54:36.593Z,22.21
2022-10-28T14:57:09.515Z,22.04
2022-10-28T14:59:39.234Z,21.88
2022-10-28T15:02:15.331Z,21.95
2022-10-28T15:04:45.499Z,22.18
2022-10-28T15:07:15.375Z,22.12
2022-10-28T15:09:44.462Z,22.11
2022-10-28T15:12:14.488Z,22.07
2022-10-28T15:14:46.444Z,21.98
2022-10-28T15:17:18.470Z,21.84
2022-10-28T15:19:47.890Z,21.50
2022-10-28T15:22:19.341Z,21.43
2022-10-28T15:24:58.748Z,21.60
2022-10-28T15:27:28.956Z,21.73
2022-10-28T15:29:57.835Z,21.67
2022-10-28T15:32:29.769Z,21.70
2022-10-28T15:34:57.927Z,21.70
2022-10-28T15:37:28.094Z,21.63
2022-10-28T15:40:13.420Z,21.67
2022-10-28T15:42:45.664Z,21.67
2022-10-28T15:45:19.331Z,21.55
2022-10-28T15:47:49.721Z,21.51
2022-10-28T15:50:38.255Z,21.47
2022-10-28T15:53:23.585Z,21.57
2022-10-28T15:56:10.553Z,21.54
2022-10-28T15:58:40.456Z,21.56
2022-10-28T16:01:11.368Z,21.60
2022-10-28T16:03:45.808Z,21.43
2022-10-28T16:06:24.669Z,21.48
2022-10-28T16:09:18.494Z,21.48
2022-10-28T16:11:49.427Z,21.44
2022-10-28T16:14:37.426Z,21.28
2022-10-28T16:17:13.877Z,21.30
2022-10-28T16:19:47.583Z,21.25
2022-10-28T16:22:15.676Z,21.17
2022-10-28T16:24:43.585Z,21.12
2022-10-28T16:27:21.952Z,21.15
2022-10-28T16:29:50.208Z,21.14
2022-10-28T16:32:26.581Z,21.09
2022-10-28T16:34:56.612Z,21.05
2022-10-28T16:37:26.979Z,21.00
2022-10-28T16:39:55.452Z,20.98
2022-10-28T16:42:23.935Z,20.95
2022-10-28T16:44:51.919Z,20.78
2022-10-28T16:47:21.730Z,20.74
2022-10-28T16:49:54.129Z,20.59
2022-10-28T16:52:29.187Z,20.50
2022-10-28T16:54:58.107Z,20.46
2022-10-28T16:57:25.971Z,20.46
2022-10-28T16:59:54.350Z,20.34
2022-10-28T17:02:26.923Z,20.17
2022-10-28T17:04:55.385Z,20.19
2022-10-28T17:07:23.288Z,20.11
2022-10-28T17:09:52.929Z,19.99
2022-10-28T17:12:23.001Z,19.95
2022-10-28T17:14:51.055Z,19.99
2022-10-28T17:17:19.067Z,20.09
2022-10-28T17:19:46.855Z,20.13
2022-10-28T17:22:15.088Z,20.18
2022-10-28T17:24:43.002Z,20.22
2022-10-28T17:27:12.816Z,20.23
2022-10-28T17:29:40.683Z,20.20
2022-10-28T17:32:09.308Z,20.17
2022-10-28T17:34:37.360Z,20.08
2022-10-28T17:37:05.912Z,20.06
2022-10-28T17:39:33.624Z,20.06
2022-10-28T17:42:01.478Z,20.06
2022-10-28T17:44:30.579Z,20.07
2022-10-28T17:46:58.359Z,20.06
2022-10-28T17:49:26.108Z,19.95
2022-10-28T17:51:53.844Z,19.95
2022-10-28T17:54:21.521Z,19.85
2022-10-28T17:56:49.275Z,19.81
2022-10-28T17:59:18.742Z,19.75
2022-10-28T18:01:47.870Z,19.68
2022-10-28T18:04:15.785Z,19.60
2022-10-28T18:06:43.573Z,19.63
2022-10-28T18:09:12.740Z,19.51
2022-10-28T18:11:40.841Z,19.49
2022-10-28T18:14:08.541Z,19.49
2022-10-28T18:16:37.841Z,19.38
2022-10-28T18:19:08.583Z,19.23
2022-10-28T18:21:36.437Z,19.16
2022-10-28T18:24:07.406Z,19.33
2022-10-28T18:26:36.677Z,19.17
2022-10-28T18:29:07.943Z,19.28
2022-10-28T18:31:35.879Z,19.28
2022-10-28T18:34:04.517Z,19.23
2022-10-28T18:36:35.627Z,19.26
2022-10-28T18:39:04.514Z,19.38
2022-10-28T18:41:34.456Z,19.37
2022-10-28T18:44:04.373Z,19.34
2022-10-28T18:46:34.283Z,19.33
2022-10-28T18:49:03.046Z,19.29
2022-10-28T18:51:30.852Z,19.27
2022-10-28T18:53:59.955Z,19.08
2022-10-28T18:56:29.663Z,19.11
2022-10-28T18:58:57.762Z,19.06
2022-10-28T19:01:27.402Z,19.00
2022-10-28T19:03:57.321Z,18.91
2022-10-28T19:06:26.320Z,18.99
2022-10-28T19:08:56.008Z,18.91
2022-10-28T19:11:29.956Z,18.83
2022-10-28T19:13:58.695Z,18.96
2022-10-28T19:16:26.487Z,19.03
2022-10-28T19:18:58.083Z,18.99
2022-10-28T19:21:26.672Z,18.92
2022-10-28T19:23:54.477Z,18.97
2022-10-28T19:26:22.808Z,18.98
2022-10-28T19:28:52.816Z,19.05
2022-10-28T19:31:22.088Z,19.14
2022-10-28T19:33:50.123Z,19.11
2022-10-28T19:36:19.259Z,19.05
2022-10-28T19:38:48.420Z,19.09
2022-10-28T19:41:18.652Z,19.17
2022-10-28T19:43:46.900Z,19.26
2022-10-28T19:46:17.793Z,19.06
2022-10-28T19:48:47.672Z,18.95
2022-10-28T19:51:17.583Z,19.00
2022-10-28T19:53:48.376Z,19.15
2022-10-28T19:56:18.683Z,18.98
2022-10-28T19:58:47.529Z,19.13
2022-10-28T20:01:17.547Z,19.18
2022-10-28T20:03:49.191Z,19.13
2022-10-28T20:06:19.022Z,19.18
2022-10-28T20:08:48.391Z,19.28
2022-10-28T20:11:21.329Z,19.19
2022-10-28T20:13:53.765Z,19.12
2022-10-28T20:16:22.979Z,19.18
2022-10-28T20:18:50.732Z,19.31
2022-10-28T20:21:19.974Z,19.33
2022-10-28T20:26:18.876Z,19.32
2022-10-28T20:28:46.908Z,19.31
2022-10-28T20:31:17.033Z,19.30
2022-10-28T20:33:51.592Z,19.25
2022-10-28T20:36:24.131Z,19.34
2022-10-28T20:38:55.149Z,19.36
2022-10-28T20:41:23.569Z,19.46
2022-10-28T20:43:52.201Z,19.39
2022-10-28T20:46:20.418Z,19.36
2022-10-28T20:48:50.348Z,19.37
2022-10-28T20:51:18.082Z,19.37
2022-10-28T20:53:45.754Z,19.38
2022-10-28T20:56:17.250Z,19.40
2022-10-28T20:58:44.964Z,19.44
2022-10-28T21:01:15.320Z,19.42
2022-10-28T21:03:43.922Z,19.40
2022-10-28T21:08:46.469Z,19.28
2022-10-28T21:11:15.860Z,19.29
2022-10-28T21:13:45.452Z,19.37
2022-10-28T21:16:14.276Z,19.29
2022-10-28T21:18:42.293Z,19.24
2022-10-28T21:21:11.992Z,19.20
2022-10-28T21:23:41.116Z,19.23
2022-10-28T21:26:09.801Z,18.97
2022-10-28T21:28:37.713Z,19.04
2022-10-28T21:31:07.368Z,19.03
2022-10-28T21:33:36.837Z,19.24
2022-10-28T21:36:06.357Z,19.27
2022-10-28T21:38:34.566Z,19.19
2022-10-28T21:41:06.123Z,18.97
2022-10-28T21:43:35.916Z,18.92
2022-10-28T21:46:04.420Z,18.94
2022-10-28T21:48:34.024Z,18.75
2022-10-28T21:51:03.716Z,18.87
2022-10-28T21:53:33.460Z,18.90
2022-10-28T21:56:06.779Z,19.00
2022-10-28T21:58:36.609Z,18.97
2022-10-28T22:01:06.339Z,18.95
2022-10-28T22:03:34.452Z,18.89
2022-10-28T22:06:02.137Z,19.09
2022-10-28T22:08:29.856Z,19.03
2022-10-28T22:11:02.260Z,18.98
2022-10-28T22:13:31.728Z,18.90
2022-10-28T22:16:01.700Z,18.79
2022-10-28T22:18:30.310Z,18.77
2022-10-28T22:20:58.603Z,18.83
2022-10-28T22:23:26.293Z,18.63
2022-10-28T22:25:54.004Z,18.80
2022-10-28T22:28:21.723Z,18.75
2022-10-28T22:30:50.720Z,18.83
2022-10-28T22:33:18.465Z,18.61
2022-10-28T22:35:57.057Z,18.63
2022-10-28T22:38:24.826Z,18.78
2022-10-28T22:41:02.693Z,18.80
2022-10-28T22:43:30.592Z,18.84
2022-10-28T22:46:00.151Z,18.76
2022-10-28T22:48:28.911Z,18.76
2022-10-28T22:50:57.061Z,18.90
2022-10-28T22:53:25.660Z,19.10
2022-10-28T22:55:54.097Z,19.13
2022-10-28T22:58:22.275Z,18.96
2022-10-28T23:00:50.487Z,19.12
2022-10-28T23:03:19.849Z,19.13
2022-10-28T23:05:47.945Z,19.19
2022-10-28T23:08:17.137Z,19.13
2022-10-28T23:10:44.789Z,19.11
2022-10-28T23:13:13.370Z,19.09
2022-10-28T23:15:41.077Z,19.00
2022-10-28T23:18:08.894Z,19.00
2022-10-28T23:20:37.980Z,19.09
2022-10-28T23:23:05.768Z,19.22
2022-10-28T23:25:33.652Z,19.12
2022-10-28T23:28:01.340Z,19.27
2022-10-28T23:30:29.031Z,19.30
2022-10-28T23:32:57.921Z,19.33
2022-10-28T23:35:26.316Z,19.22
2022-10-28T23:37:55.770Z,19.14
2022-10-28T23:40:23.512Z,19.32
2022-10-28T23:42:51.256Z,19.17
2022-10-28T23:45:18.943Z,19.30
2022-10-28T23:47:47.104Z,19.34
2022-10-28T23:50:14.944Z,19.16
2022-10-28T23:52:43.012Z,19.35
2022-10-28T23:55:12.055Z,19.36
2022-10-28T23:57:39.788Z,19.29
